Wiconisco, Pennsylvania
Current Conditions -  °F | °C
As of 6:58 AM on Sunday 23 Nov 2014 (Local Time) from KMUI Reporting Station
Overcast Overcast  
Wind Chill: 33°   Ceiling: 7000
Heat Index: 33°   Visibility: 10mi
Dew Point: 25°   Wind: 2mph
Humidity: 73%   Direction: 100°E
Pressure: 30.2"   Gusts: NA
Location:  40.57°N, 76.69°W
Report Text: KMUI 231158Z AUTO 10002KT 10SM BKN070 OVC100 00/M04 A3020 RMK AO2 SLP234 T00031040 10007 21012 52007 $
Loading
Personal Weather Stations






























Interactive Weather Map New forecast layout! Learn more

10-Day Weather Forecast

Advertisements
Track Severe Weather on mobile